createdAt,value
2022-10-02T00:04:39.939Z,11.19
2022-10-02T00:10:01.086Z,11.21
2022-10-02T00:15:13.280Z,11.22
2022-10-02T00:20:18.832Z,11.18
2022-10-02T00:25:35.450Z,11.17
2022-10-02T00:31:03.871Z,11.17
2022-10-02T00:36:44.139Z,11.18
2022-10-02T00:42:38.178Z,11.21
2022-10-02T00:47:59.152Z,11.22
2022-10-02T00:53:33.286Z,11.22
2022-10-02T00:58:55.485Z,11.20
2022-10-02T01:03:58.062Z,11.19
2022-10-02T01:09:01.455Z,11.17
2022-10-02T01:14:03.595Z,11.15
2022-10-02T01:19:08.976Z,11.12
2022-10-02T01:24:25.217Z,11.12
2022-10-02T01:29:27.113Z,11.14
2022-10-02T01:34:29.385Z,11.16
2022-10-02T01:39:31.241Z,11.19
2022-10-02T01:44:33.153Z,11.24
2022-10-02T01:49:42.108Z,11.26
2022-10-02T01:55:38.480Z,11.22
2022-10-02T02:01:38.400Z,11.20
2022-10-02T02:06:52.652Z,11.17
2022-10-02T02:12:09.000Z,11.17
2022-10-02T02:17:25.964Z,11.15
2022-10-02T02:22:31.077Z,11.15
2022-10-02T02:27:41.500Z,11.19
2022-10-02T02:32:50.231Z,11.23
2022-10-02T02:38:00.408Z,11.25
2022-10-02T02:43:08.536Z,11.25
2022-10-02T02:48:25.960Z,11.26
2022-10-02T02:53:43.410Z,11.27
2022-10-02T02:59:09.936Z,11.26
2022-10-02T03:04:13.845Z,11.24
2022-10-02T03:09:21.344Z,11.26
2022-10-02T03:14:42.184Z,11.31
2022-10-02T03:20:00.925Z,11.37
2022-10-02T03:25:19.595Z,11.42
2022-10-02T03:30:22.224Z,11.46
2022-10-02T03:35:25.361Z,11.48
2022-10-02T03:40:27.426Z,11.49
2022-10-02T03:45:50.028Z,11.51
2022-10-02T03:50:51.482Z,11.52
2022-10-02T03:56:12.021Z,11.53
2022-10-02T04:01:21.440Z,11.55
2022-10-02T04:06:46.716Z,11.56
2022-10-02T04:11:59.788Z,11.60
2022-10-02T04:17:08.105Z,11.64
2022-10-02T04:22:25.356Z,11.67
2022-10-02T04:27:56.326Z,11.69
2022-10-02T04:33:19.301Z,11.68
2022-10-02T04:38:32.498Z,11.66
2022-10-02T04:43:55.918Z,11.61
2022-10-02T04:49:03.476Z,11.54
2022-10-02T04:54:25.947Z,11.49
2022-10-02T04:59:46.252Z,11.48
2022-10-02T05:05:09.939Z,11.52
2022-10-02T05:10:28.682Z,11.57
2022-10-02T05:16:02.708Z,11.58
2022-10-02T05:21:16.345Z,11.59
2022-10-02T05:26:43.475Z,11.62
2022-10-02T05:31:56.816Z,11.66
2022-10-02T05:37:24.844Z,11.67
2022-10-02T05:43:04.938Z,11.67
2022-10-02T05:48:34.913Z,11.70
2022-10-02T05:53:45.583Z,11.76
2022-10-02T05:59:09.811Z,11.79
2022-10-02T06:04:18.331Z,11.88
2022-10-02T06:09:35.254Z,12.02
2022-10-02T06:14:50.422Z,12.20
2022-10-02T06:20:03.603Z,12.31
2022-10-02T06:25:21.404Z,12.43
2022-10-02T06:30:23.399Z,12.57
2022-10-02T06:35:52.622Z,12.71
2022-10-02T06:41:08.704Z,12.81
2022-10-02T06:46:28.106Z,12.91
2022-10-02T06:51:32.679Z,12.95
2022-10-02T06:57:08.442Z,13.10
2022-10-02T07:02:30.871Z,13.43
2022-10-02T07:07:42.665Z,13.76
2022-10-02T07:12:56.477Z,13.80
2022-10-02T07:18:11.994Z,13.86
2022-10-02T07:23:35.132Z,14.10
2022-10-02T07:29:10.059Z,14.32
2022-10-02T07:34:40.541Z,14.53
2022-10-02T07:39:53.959Z,14.53
2022-10-02T07:44:58.707Z,14.55
2022-10-02T07:50:12.416Z,14.94
2022-10-02T07:55:15.969Z,15.24
2022-10-02T08:00:20.525Z,15.27
2022-10-02T08:05:40.656Z,15.33
2022-10-02T08:10:47.563Z,15.42
2022-10-02T08:15:55.201Z,15.51
2022-10-02T08:20:57.963Z,15.58
2022-10-02T08:26:36.059Z,15.72
2022-10-02T08:31:38.160Z,15.96
2022-10-02T08:37:29.375Z,15.88
2022-10-02T08:43:08.423Z,15.76
2022-10-02T08:48:34.157Z,15.74
2022-10-02T08:54:26.149Z,16.02
2022-10-02T08:59:52.781Z,16.30
2022-10-02T09:05:03.363Z,16.49
2022-10-02T09:10:27.685Z,16.34
2022-10-02T09:15:45.000Z,16.41
2022-10-02T09:21:29.788Z,16.86
2022-10-02T09:26:45.079Z,17.18
2022-10-02T09:32:09.603Z,17.19
2022-10-02T09:37:32.537Z,17.01
2022-10-02T09:43:02.365Z,16.99
2022-10-02T09:48:30.322Z,16.67
2022-10-02T09:54:01.024Z,16.84
2022-10-02T09:59:34.746Z,16.90
2022-10-02T10:05:09.368Z,17.12
2022-10-02T10:10:26.144Z,17.14
2022-10-02T10:16:19.189Z,16.90
2022-10-02T10:22:00.938Z,16.96
2022-10-02T10:27:45.097Z,16.90
2022-10-02T10:33:05.396Z,17.16
2022-10-02T10:38:34.320Z,17.09
2022-10-02T10:44:12.347Z,17.23
2022-10-02T10:49:55.193Z,17.44
2022-10-02T10:55:21.493Z,17.61
2022-10-02T11:00:50.412Z,17.69
2022-10-02T11:06:22.334Z,17.52
2022-10-02T11:11:42.330Z,17.37
2022-10-02T11:17:06.318Z,17.60
2022-10-02T11:22:52.625Z,17.69
2022-10-02T11:28:10.742Z,17.53
2022-10-02T11:33:40.634Z,17.37
2022-10-02T11:39:26.725Z,17.27
2022-10-02T11:44:55.820Z,17.40
2022-10-02T11:50:19.195Z,17.59
2022-10-02T11:55:23.792Z,17.92
2022-10-02T12:00:45.449Z,18.15
2022-10-02T12:06:33.636Z,18.49
2022-10-02T12:11:45.338Z,18.85
2022-10-02T12:17:06.137Z,18.89
2022-10-02T12:22:45.205Z,18.89
2022-10-02T12:28:05.745Z,18.67
2022-10-02T12:33:32.941Z,18.65
2022-10-02T12:38:52.373Z,18.89
2022-10-02T12:44:06.601Z,19.21
2022-10-02T12:49:14.292Z,19.32
2022-10-02T12:54:32.801Z,19.43
2022-10-02T12:59:43.389Z,19.68
2022-10-02T13:05:14.881Z,19.72
2022-10-02T13:10:23.449Z,19.68
2022-10-02T13:15:34.269Z,19.65
2022-10-02T13:20:42.880Z,19.73
2022-10-02T13:25:58.783Z,19.80
2022-10-02T13:31:53.117Z,19.80
2022-10-02T13:37:30.689Z,19.61
2022-10-02T13:42:46.498Z,19.51
2022-10-02T13:48:05.798Z,19.43
2022-10-02T13:58:55.841Z,18.82
2022-10-02T14:04:11.384Z,19.23
2022-10-02T14:09:31.408Z,19.50
2022-10-02T14:14:42.974Z,19.48
2022-10-02T14:19:52.964Z,19.44
2022-10-02T14:25:27.534Z,19.30
2022-10-02T14:30:47.654Z,19.07
2022-10-02T14:36:08.376Z,18.87
2022-10-02T14:41:33.186Z,18.68
2022-10-02T14:46:36.087Z,18.39
2022-10-02T14:51:59.691Z,18.13
2022-10-02T14:57:26.063Z,17.89
2022-10-02T15:02:51.073Z,17.41
2022-10-02T15:07:52.807Z,16.89
2022-10-02T15:13:10.226Z,16.49
2022-10-02T15:18:38.515Z,16.19
2022-10-02T15:23:44.377Z,16.00
2022-10-02T15:29:10.856Z,15.90
2022-10-02T15:34:21.538Z,15.70
2022-10-02T15:39:51.063Z,15.32
2022-10-02T15:45:04.305Z,15.08
2022-10-02T15:50:25.292Z,14.95
2022-10-02T15:55:49.987Z,14.83
2022-10-02T16:01:01.141Z,14.63
2022-10-02T16:06:21.211Z,14.47
2022-10-02T16:11:28.933Z,14.31
2022-10-02T16:16:36.667Z,14.18
2022-10-02T16:22:12.297Z,14.08
2022-10-02T16:27:32.782Z,13.89
2022-10-02T16:32:47.896Z,13.89
2022-10-02T16:43:22.777Z,13.82
2022-10-02T16:48:53.940Z,13.78
2022-10-02T16:54:25.033Z,13.68
2022-10-02T16:59:27.015Z,13.59
2022-10-02T17:04:40.209Z,13.56
2022-10-02T17:09:55.019Z,13.52
2022-10-02T17:15:08.822Z,13.48
2022-10-02T17:20:19.754Z,13.44
2022-10-02T17:25:52.941Z,13.39
2022-10-02T17:31:00.914Z,13.36
2022-10-02T17:36:13.421Z,13.30
2022-10-02T17:41:30.540Z,13.20
2022-10-02T17:47:10.031Z,13.11
2022-10-02T17:52:49.395Z,13.01
2022-10-02T17:58:14.034Z,12.92
2022-10-02T18:03:47.619Z,12.83
2022-10-02T18:09:00.381Z,12.37
2022-10-02T18:14:13.269Z,11.87
2022-10-02T18:19:47.002Z,11.52
2022-10-02T18:25:15.411Z,11.20
2022-10-02T18:30:21.300Z,10.98
2022-10-02T18:35:41.223Z,10.85
2022-10-02T18:41:07.806Z,10.76
2022-10-02T18:46:37.281Z,10.75
2022-10-02T18:52:17.204Z,10.75
2022-10-02T18:57:37.490Z,10.75
2022-10-02T19:03:17.807Z,10.74
2022-10-02T19:09:04.792Z,10.71
2022-10-02T19:14:21.497Z,10.67
2022-10-02T19:19:26.631Z,10.68
2022-10-02T19:24:35.015Z,10.68
2022-10-02T19:29:41.885Z,10.67
2022-10-02T19:34:43.990Z,10.64
2022-10-02T19:39:55.814Z,10.58
2022-10-02T19:45:08.104Z,10.47
2022-10-02T19:50:25.805Z,10.35
2022-10-02T19:55:33.880Z,10.25
2022-10-02T20:00:40.812Z,10.21
2022-10-02T20:05:44.806Z,10.16
2022-10-02T20:10:50.317Z,10.11
2022-10-02T20:16:20.830Z,10.10
2022-10-02T20:21:36.531Z,10.12
2022-10-02T20:26:41.160Z,10.16
2022-10-02T20:31:59.592Z,10.23
2022-10-02T20:37:07.788Z,10.35
2022-10-02T20:42:17.265Z,10.42
2022-10-02T20:47:43.513Z,10.41
2022-10-02T20:52:55.302Z,10.34
2022-10-02T20:58:27.387Z,10.22
2022-10-02T21:03:57.735Z,10.09
2022-10-02T21:09:09.706Z,9.96
2022-10-02T21:14:45.811Z,9.89
2022-10-02T21:20:16.577Z,9.83
2022-10-02T21:25:45.070Z,9.81
2022-10-02T21:31:29.852Z,9.89
2022-10-02T21:36:58.657Z,9.99
2022-10-02T21:42:28.020Z,10.07
2022-10-02T21:47:45.312Z,10.16
2022-10-02T21:53:07.588Z,10.22
2022-10-02T21:58:27.617Z,10.31
2022-10-02T22:04:08.148Z,10.41
2022-10-02T22:09:30.951Z,10.48
2022-10-02T22:14:39.218Z,10.50
2022-10-02T22:20:06.224Z,10.50
2022-10-02T22:25:29.356Z,10.49
2022-10-02T22:30:45.032Z,10.50
2022-10-02T22:35:59.040Z,10.48
2022-10-02T22:41:16.406Z,10.42
2022-10-02T22:46:30.917Z,10.30
2022-10-02T22:52:02.636Z,10.18
2022-10-02T22:57:04.499Z,10.12
2022-10-02T23:02:10.288Z,10.09
2022-10-02T23:07:26.179Z,10.00
2022-10-02T23:12:44.009Z,9.95
2022-10-02T23:17:50.500Z,9.94
2022-10-02T23:22:56.365Z,9.88
2022-10-02T23:28:03.233Z,9.86
2022-10-02T23:33:23.991Z,9.84
2022-10-02T23:38:34.400Z,9.83
2022-10-02T23:44:01.041Z,9.83
2022-10-02T23:49:03.134Z,9.81
2022-10-02T23:54:29.663Z,9.77
2022-10-02T23:59:39.176Z,9.76
